CW8667 Weather Reports


time (UTC)temp
C
wind
direction
speed
KPH
gust
KPH
rain 1hr
cm
rain 24hr
cm
rain mn
cm
humidity
%
barometer
mb
20190420081519 20 90 4.8 9.7 0.00 0.00 0.00 58 1016.0
20190420080519 20 90 6.4 9.7 0.00 0.00 0.00 58 1015.9
20190420075519 21 90 4.8 9.7 0.00 0.00 0.00 58 1016.0
20190420074519 21 90 4.8 9.7 0.00 0.00 0.00 56 1015.9
20190420073519 21 90 8.0 12.9 0.00 0.00 0.00 54 1015.9
20190420072519 22 90 11.3 16.1 0.00 0.00 0.00 52 1015.9
20190420071518 23 90 9.7 17.7 0.00 0.00 0.00 49 1015.8
20190420070518 24 112 9.7 14.5 0.00 0.00 0.00 46 1015.8
20190420065518 25 112 12.9 19.3 0.00 0.00 0.00 43 1015.7
20190420064519 26 67 8.0 16.1 0.00 0.00 0.00 35 1015.8
20190420063519 26 45 4.8 9.7 0.00 0.00 0.00 32 1015.9
20190420062519 26 22 3.2 8.0 0.00 0.00 0.00 35 1016.0
20190420061519 25 202 1.6 4.8 0.00 0.00 0.00 46 1016.1
20190420060518 25 202 4.8 8.0 0.00 0.00 0.00 48 1016.2
20190420055519 26 225 1.6 4.8 0.00 0.00 0.00 45 1016.5
20190420054518 27 22 4.8 9.7 0.00 0.00 0.00 40 1016.6
20190420053518 27 0 8.0 14.5 0.00 0.00 0.00 30 1016.7
20190420052519 27 22 6.4 11.3 0.00 0.00 0.00 31 1016.9
20190420051518 26 45 6.4 14.5 0.00 0.00 0.00 32 1017.0
20190420050518 26 22 6.4 12.9 0.00 0.00 0.00 32 1017.1
20190420045518 26 0 8.0 16.1 0.00 0.00 0.00 33 1017.2
20190420044518 26 45 6.4 16.1 0.00 0.00 0.00 33 1017.3
20190420043518 26 22 9.7 14.5 0.00 0.00 0.00 34 1017.4
20190420042518 25 22 9.7 16.1 0.00 0.00 0.00 35 1017.4
20190420041519 23 202 3.2 12.9 0.00 0.00 0.00 47 1017.6
20190420040518 25 180 4.8 8.0 0.00 0.00 0.00 47 1017.8
20190420035519 25 180 3.2 6.4 0.00 0.00 0.00 42 1017.8
20190420034518 25 22 6.4 11.3 0.00 0.00 0.00 33 1018.0
20190420034018 25 337 8.0 17.7 0.00 0.00 0.00 33 1018.1
20190420033018 25 0 11.3 19.3 0.00 0.00 0.00 33 1018.1
20190420032018 25 0 12.9 20.9 0.00 0.00 0.00 32 1018.3
20190420031018 25 45 11.3 20.9 0.00 0.00 0.00 34 1018.4
20190420030018 25 22 11.3 20.9 0.00 0.00 0.00 34 1018.5
20190420025518 24 22 11.3 19.3 0.00 0.00 0.00 34 1018.5
20190420025051 25 0 9.7 17.7 0.00 0.00 0.00 33 1018.7
20190420024018 23 22 9.7 20.9 0.00 0.00 0.00 38 1019.0
20190420023018 21 45 8.0 22.5 0.00 0.00 0.00 50 1019.2
20190420022018 20 225 4.8 8.0 0.00 0.00 0.00 64 1019.3
20190420021018 19 225 6.4 9.7 0.00 0.00 0.00 63 1019.5
20190420020018 19 247 8.0 14.5 0.00 0.00 0.00 62 1019.6
20190420015018 18 202 8.0 14.5 0.00 0.00 0.00 66 1019.8
20190420014017 19 202 8.0 12.9 0.00 0.00 0.00 66 1019.9
20190420013018 18 180 6.4 9.7 0.00 0.00 0.00 66 1020.0
20190420012018 18 180 6.4 12.9 0.00 0.00 0.00 65 1020.1
20190420011017 20 225 4.8 9.7 0.00 0.00 0.00 63 1020.3
20190420010017 21 135 4.8 9.7 0.00 0.00 0.00 52 1020.4
20190420005018 21 22 4.8 11.3 0.00 0.00 0.00 39 1020.4
20190420004018 21 22 11.3 16.1 0.00 0.00 0.00 38 1020.4
20190420003018 21 0 9.7 19.3 0.00 0.00 0.00 38 1020.5
20190420002017 21 0 12.9 25.7 0.00 0.00 0.00 41 1020.6
20190420001018 20 22 11.3 22.5 0.00 0.00 0.00 42 1020.8
20190420000017 20 22 14.5 19.3 0.00 0.00 0.00 45 1020.8
20190419235018 20 45 9.7 19.3 0.00 0.00 0.00 51 1020.9
20190419234018 19 0 9.7 14.5 0.00 0.00 0.00 59 1021.0
20190419233017 18 45 6.4 11.3 0.00 0.00 0.00 69 1021.2
20190419232017 17 45 4.8 9.7 0.00 0.00 0.00 74 1021.2
20190419231017 17 67 3.2 11.3 0.00 0.00 0.00 78 1021.2
20190419230018 16 22 6.4 11.3 0.00 0.00 0.00 81 1021.3
20190419225017 15 67 6.4 11.3 0.00 0.00 0.00 83 1021.3
20190419224017 15 45 4.8 9.7 0.00 0.00 0.00 86 1021.4
20190419223018 14 67 3.2 6.4 0.00 0.00 0.00 86 1021.3
20190419222017 13 45 4.8 8.0 0.00 0.00 0.00 87 1021.3
20190419221019 12 67 6.4 8.0 0.00 0.00 0.00 87 1021.3
20190419220018 11 45 6.4 9.7 0.00 0.00 0.00 87 1021.3
20190419215017 11 45 8.0 9.7 0.00 0.00 0.00 87 1021.2
20190419214020 11 67 6.4 9.7 0.00 0.00 0.00 87 1021.2
20190419213019 10 67 6.4 8.0 0.00 0.00 0.00 87 1021.2
20190419212018 10 67 6.4 8.0 0.00 0.00 0.00 87 1021.1
20190419211018 10 67 6.4 11.3 0.00 0.00 0.00 87 1020.9
20190419210019 10 67 8.0 11.3 0.00 0.00 0.00 87 1021.0
20190419205019 10 67 6.4 12.9 0.00 0.00 0.00 86 1021.0
20190419204020 11 67 8.0 11.3 0.00 0.00 0.00 86 1021.0
20190419203017 11 67 8.0 9.7 0.00 0.00 0.00 86 1021.0
20190419202019 11 45 9.7 12.9 0.00 0.00 0.00 86 1021.1
20190419201017 11 45 9.7 12.9 0.00 0.00 0.00 86 1021.1
20190419200019 11 45 8.0 12.9 0.00 0.00 0.00 86 1021.1
20190419195019 12 45 6.4 11.3 0.00 0.00 0.00 86 1021.1
20190419194019 12 45 6.4 11.3 0.00 0.00 0.00 85 1021.0
20190419193019 12 45 8.0 14.5 0.00 0.00 0.00 85 1021.0
20190419192019 12 45 9.7 14.5 0.00 0.00 0.00 85 1020.9
20190419191018 11 22 9.7 12.9 0.00 0.00 0.00 85 1020.9
20190419190019 11 45 6.4 11.3 0.00 0.00 0.00 85 1020.9
20190419185019 11 45 8.0 11.3 0.00 0.00 0.00 84 1020.9
20190419184019 11 22 6.4 11.3 0.00 0.00 0.00 84 1020.9
20190419183019 11 67 8.0 11.3 0.00 0.00 0.00 84 1020.9
20190419182019 11 45 6.4 9.7 0.00 0.00 0.00 83 1021.0
20190419181019 12 45 8.0 9.7 0.00 0.00 0.00 83 1020.8
20190419180019 12 67 8.0 9.7 0.00 0.00 0.00 83 1020.9
20190419175019 12 67 8.0 11.3 0.00 0.00 0.00 83 1020.9
20190419174018 12 67 8.0 11.3 0.00 0.00 0.00 82 1020.9
20190419173106 12 45 8.0 9.7 0.00 0.00 0.00 82 1021.0
20190419172518 12 45 6.4 9.7 0.00 0.00 0.00 82 1021.0
20190419171519 13 45 9.7 12.9 0.00 0.00 0.00 82 1020.9
20190419170519 13 67 9.7 14.5 0.00 0.00 0.00 81 1020.8
20190419165518 13 67 9.7 14.5 0.00 0.00 0.00 82 1020.9
20190419164518 13 67 12.9 17.7 0.00 0.00 0.00 82 1020.9
20190419163518 13 67 11.3 16.1 0.00 0.00 0.00 82 1021.1
20190419162519 13 67 11.3 17.7 0.00 0.00 0.00 82 1021.2
20190419161518 13 67 11.3 16.1 0.00 0.00 0.00 82 1021.2
20190419160519 13 67 14.5 17.7 0.00 0.00 0.00 82 1021.3
20190419155518 13 67 12.9 17.7 0.00 0.00 0.00 82 1021.3
20190419154519 13 67 12.9 17.7 0.00 0.00 0.00 82 1021.4
20190419153518 13 67 12.9 19.3 0.00 0.00 0.00 82 1021.6
20190419152518 13 67 12.9 17.7 0.00 0.00 0.00 82 1021.7
20190419151518 14 67 14.5 19.3 0.00 0.00 0.00 82 1021.7
20190419150519 14 67 14.5 20.9 0.00 0.00 0.00 82 1021.9
20190419145518 14 67 16.1 20.9 0.00 0.00 0.00 82 1022.0
20190419144519 14 67 11.3 19.3 0.00 0.00 0.00 82 1022.0
20190419143518 14 67 12.9 22.5 0.00 0.00 0.00 82 1021.9
20190419142518 14 67 14.5 20.9 0.00 0.00 0.00 82 1021.9
20190419141518 14 67 12.9 22.5 0.00 0.00 0.00 82 1022.0
20190419140518 14 67 12.9 20.9 0.00 0.00 0.00 82 1022.0
20190419135517 14 67 11.3 17.7 0.00 0.00 0.00 81 1022.1
20190419134517 14 67 9.7 17.7 0.00 0.00 0.00 81 1022.3
20190419133517 14 67 9.7 16.1 0.00 0.00 0.00 81 1022.2
20190419132517 15 67 12.9 22.5 0.00 0.00 0.00 83 1022.2
20190419131517 15 45 12.9 20.9 0.00 0.00 0.00 81 1022.2
20190419130519 15 67 12.9 20.9 0.00 0.00 0.00 80 1022.3
20190419125517 15 45 14.5 24.1 0.00 0.00 0.00 80 1022.2
20190419124517 15 67 12.9 22.5 0.00 0.00 0.00 80 1022.3
20190419123520 15 67 12.9 20.9 0.00 0.00 0.00 80 1022.2
20190419122519 15 67 12.9 22.5 0.00 0.00 0.00 79 1022.3
20190419121517 15 67 11.3 19.3 0.00 0.00 0.00 79 1022.4
20190419120518 15 67 12.9 22.5 0.00 0.00 0.00 79 1022.5
20190419115519 15 67 12.9 25.7 0.00 0.00 0.00 80 1022.5
20190419114519 14 67 9.7 17.7 0.00 0.00 0.00 80 1022.5
20190419113519 14 67 9.7 17.7 0.00 0.00 0.00 81 1022.6
20190419112519 14 67 9.7 14.5 0.00 0.00 0.00 81 1022.5
20190419111517 14 45 9.7 14.5 0.00 0.00 0.00 81 1022.4
20190419110519 14 45 4.8 8.0 0.00 0.00 0.00 81 1022.6
20190419105519 14 45 4.8 8.0 0.00 0.00 0.00 80 1022.7
20190419104518 15 22 3.2 6.4 0.00 0.00 0.00 80 1022.8
20190419103519 15 45 1.6 3.2 0.00 0.00 0.00 81 1022.8
20190419102519 15 45 1.6 3.2 0.00 0.00 0.00 80 1022.6
20190419101518 15 45 1.6 4.8 0.00 0.00 0.00 80 1022.5
20190419100519 15 67 4.8 8.0 0.00 0.00 0.00 80 1022.4
20190419095518 15 90 4.8 9.7 0.00 0.00 0.00 80 1022.3
20190419094519 15 90 4.8 11.3 0.00 0.00 0.00 79 1022.3
20190419093518 15 90 3.2 6.4 0.00 0.00 0.00 79 1022.3
20190419092519 15 90 4.8 11.3 0.00 0.00 0.00 79 1022.3
20190419091519 15 90 6.4 12.9 0.00 0.00 0.00 79 1022.3
20190419090519 16 90 9.7 14.5 0.00 0.00 0.00 79 1022.3
20190419085518 16 90 6.4 11.3 0.00 0.00 0.00 78 1022.4
20190419084519 16 112 6.4 11.3 0.00 0.00 0.00 77 1022.3
20190419083518 16 90 4.8 11.3 0.00 0.00 0.00 77 1022.3
20190419082518 16 90 3.2 6.4 0.00 0.00 0.00 76 1022.2